aviador You're here:

KTVF Decoded Metar

THIEF RIVER in MN, USA
Report Time2017-05-23 14:01:00
UTC Time2017-05-23 14:39:59
Flight Rules mvfr MVFR
Wind030° at 13 kt
W.Decomp.*RWY 03: 13.0 kt HW 1.1 kt LCW
RWY 31: 3.4 kt HW 12.6 kt RCW
W.Rank030° ranks 36
Current wind is above 030° avg. (7.8)
Visibility9999 m
Phenomena:N/A
Clouds:Overcast 019 Hf
Expected CloudBase > 800 ft AGL from Temp-Dew spread
Ceiling1,900 ft
Temp08°C (ISA -5)
Dew Point06°C (87% RH)
AAT2.4°C
QNH1015 hPa
Density Alt604 ft
Elevation1,115 ft
Report Wrong Elevation
Raw Report
METAR KTVF 231401Z AUTO 03013KT 10SM OVC019 08/06 A2998 RMK AO2 SLP163
T00830061=

Extra information for KTVF:More info

Metar Taf Metar & Taf Last 4 Metars F.Rules Stats Wind Profile Meteogram Temp Stats Airport Information Weather charts Add Link Nearby VenuesMetar ALERT Operation Metar Decoded Social comments

AIRNAV info for KTVF